Time;durP1;ratioP1;P1;durP2;ratioP2;P2;SDS_P1;SDS_P2;PMS_P1;PMS_P2;Temp;Humidity;BMP_temperature;BMP_pressure;BME280_temperature;BME280_humidity;BME280_pressure;Samples;Min_cycle;Max_cycle;Signal;HPM_P1;HPM_P2
2022/05/10 00:02:11;;;;;;;;;;;10.20;68.80;;;;;;5091531;28;20042;-72
2022/05/10 00:04:37;;;;;;;;;;;10.20;69.40;;;;;;5091483;28;20323;-73
2022/05/10 00:07:03;;;;;;;;;;;10.20;69.30;;;;;;5091168;28;20094;-71
2022/05/10 00:09:29;;;;;;;;;;;10.20;69.30;;;;;;5091412;28;20271;-72
2022/05/10 00:11:57;;;;;;;;;;;10.20;69.90;;;;;;5091258;28;19916;-72
2022/05/10 00:14:24;;;;;;;;;;;10.20;69.10;;;;;;5091416;28;20275;-72
2022/05/10 00:16:52;;;;;;;;;;;10.30;68.80;;;;;;5091063;28;19931;-72
2022/05/10 00:19:19;;;;;;;;;;;10.20;69.30;;;;;;5090956;28;19920;-72
2022/05/10 00:21:45;;;;;;;;;;;10.20;68.00;;;;;;5091510;28;20282;-71
2022/05/10 00:24:11;;;;;;;;;;;10.30;69.20;;;;;;5091307;28;19913;-72
2022/05/10 00:26:36;;;;;;;;;;;10.30;67.90;;;;;;5090904;28;19926;-71
2022/05/10 00:29:02;;;;;;;;;;;10.30;68.10;;;;;;5091187;28;19965;-72
2022/05/10 00:31:28;;;;;;;;;;;10.30;67.90;;;;;;5089491;28;20015;-72
2022/05/10 00:33:54;;;;;;;;;;;10.30;67.80;;;;;;5094861;28;19939;-72
2022/05/10 00:36:21;;;;;;;;;;;10.30;67.40;;;;;;5095094;28;20354;-71
2022/05/10 00:38:46;;;;;;;;;;;10.30;67.80;;;;;;5095095;28;20328;-72
2022/05/10 00:41:19;;;;;;;;;;;10.30;67.60;;;;;;5094827;28;19942;-71
2022/05/10 00:43:47;;;;;;;;;;;10.20;67.80;;;;;;5095010;28;20287;-69
2022/05/10 00:46:17;;;;;;;;;;;10.30;68.50;;;;;;5094641;28;19916;-73
2022/05/10 00:48:45;;;;;;;;;;;10.20;68.90;;;;;;5094811;28;19912;-72
2022/05/10 00:51:26;;;;;;;;;;;10.20;69.30;;;;;;5094503;28;19912;-71
2022/05/10 00:53:55;;;;;;;;;;;10.20;69.20;;;;;;5094913;28;19924;-72
2022/05/10 00:56:41;;;;;;;;;;;10.10;69.70;;;;;;5094673;28;20359;-73
2022/05/10 00:59:11;;;;;;;;;;;10.20;70.20;;;;;;5094942;28;19912;-72
2022/05/10 01:01:38;;;;;;;;;;;10.20;70.50;;;;;;5094419;28;19912;-72
2022/05/10 01:04:19;;;;;;;;;;;10.10;70.50;;;;;;5094582;28;19923;-72
2022/05/10 01:06:57;;;;;;;;;;;10.10;70.80;;;;;;5094178;28;20299;-71
2022/05/10 01:09:29;;;;;;;;;;;10.00;70.80;;;;;;5093194;28;19948;-72
2022/05/10 01:12:03;;;;;;;;;;;10.00;71.00;;;;;;5094247;28;19916;-72
2022/05/10 01:14:35;;;;;;;;;;;10.00;71.10;;;;;;5094684;28;20438;-71
2022/05/10 01:17:00;;;;;;;;;;;10.00;71.30;;;;;;5094164;28;19913;-72
2022/05/10 01:19:26;;;;;;;;;;;10.00;71.40;;;;;;5094023;28;19924;-72
2022/05/10 01:21:54;;;;;;;;;;;9.90;71.90;;;;;;5093929;28;19977;-71
2022/05/10 01:24:41;;;;;;;;;;;9.90;71.20;;;;;;5094362;28;20364;-71
2022/05/10 01:27:25;;;;;;;;;;;9.90;71.10;;;;;;5092512;28;19920;-72
2022/05/10 01:30:16;;;;;;;;;;;10.00;71.30;;;;;;5094415;28;19966;-72
2022/05/10 01:35:38;;;;;;;;;;;10.00;71.40;;;;;;5093889;28;19923;-72
2022/05/10 01:38:06;;;;;;;;;;;9.90;71.80;;;;;;5093736;28;19947;-72
2022/05/10 01:40:35;;;;;;;;;;;9.90;72.00;;;;;;5093698;28;20018;-71
2022/05/10 01:43:22;;;;;;;;;;;9.90;72.40;;;;;;5093435;28;19912;-72
2022/05/10 01:45:48;;;;;;;;;;;9.90;72.10;;;;;;5092875;28;19916;-72
2022/05/10 01:48:16;;;;;;;;;;;9.90;72.30;;;;;;5093604;28;19999;-72
2022/05/10 01:50:56;;;;;;;;;;;9.80;73.00;;;;;;5092191;28;20442;-72
2022/05/10 01:53:21;;;;;;;;;;;9.70;72.80;;;;;;5093525;28;20275;-72
2022/05/10 01:55:48;;;;;;;;;;;9.70;73.00;;;;;;5092048;28;19920;-72
2022/05/10 01:58:25;;;;;;;;;;;9.60;73.50;;;;;;5093411;28;20358;-71
2022/05/10 02:00:55;;;;;;;;;;;9.60;73.40;;;;;;5093237;28;19923;-71
2022/05/10 02:03:20;;;;;;;;;;;9.60;73.00;;;;;;5093359;28;19919;-71
2022/05/10 02:05:52;;;;;;;;;;;9.60;73.70;;;;;;5093083;28;19917;-72
2022/05/10 02:08:20;;;;;;;;;;;9.60;74.20;;;;;;5093343;28;20416;-72
2022/05/10 02:10:47;;;;;;;;;;;9.50;73.60;;;;;;5093198;28;19954;-72
2022/05/10 02:13:15;;;;;;;;;;;9.50;73.90;;;;;;5093028;28;19912;-72
2022/05/10 02:15:55;;;;;;;;;;;9.50;73.70;;;;;;5093080;28;19916;-72
2022/05/10 02:18:24;;;;;;;;;;;9.50;73.80;;;;;;5092805;28;19908;-72
2022/05/10 02:20:53;;;;;;;;;;;9.40;73.60;;;;;;5093043;28;19922;-72
2022/05/10 02:23:28;;;;;;;;;;;9.50;73.60;;;;;;5092928;28;20233;-71
2022/05/10 02:25:58;;;;;;;;;;;9.50;73.70;;;;;;5092728;28;20018;-72
2022/05/10 02:28:33;;;;;;;;;;;9.50;73.70;;;;;;5092785;28;19912;-72
2022/05/10 02:31:03;;;;;;;;;;;9.50;73.40;;;;;;5092750;28;19947;-72
2022/05/10 02:33:30;;;;;;;;;;;9.60;73.10;;;;;;5092757;28;19912;-71
2022/05/10 02:35:57;;;;;;;;;;;9.60;73.80;;;;;;5092473;28;19912;-71
2022/05/10 02:38:30;;;;;;;;;;;9.60;74.30;;;;;;5092696;28;19967;-72
2022/05/10 02:40:57;;;;;;;;;;;9.60;73.70;;;;;;5092534;28;19920;-71
2022/05/10 02:43:33;;;;;;;;;;;9.60;74.10;;;;;;5092506;28;20352;-71
2022/05/10 02:45:59;;;;;;;;;;;9.60;73.70;;;;;;5091189;28;20292;-71
2022/05/10 02:48:24;;;;;;;;;;;9.60;73.70;;;;;;5092632;28;19927;-72
2022/05/10 02:50:50;;;;;;;;;;;9.60;73.80;;;;;;5092504;28;19924;-72
2022/05/10 02:53:15;;;;;;;;;;;9.70;74.00;;;;;;5092413;28;19912;-72
2022/05/10 02:55:49;;;;;;;;;;;9.70;74.20;;;;;;5092209;28;19918;-71
2022/05/10 02:58:24;;;;;;;;;;;9.70;74.30;;;;;;5092205;28;20378;-71
2022/05/10 03:00:52;;;;;;;;;;;9.70;74.50;;;;;;5092434;28;19923;-72
2022/05/10 03:03:20;;;;;;;;;;;9.70;75.00;;;;;;5092059;28;20450;-71
2022/05/10 03:05:46;;;;;;;;;;;9.80;75.10;;;;;;5091824;28;20306;-72
2022/05/10 03:08:11;;;;;;;;;;;9.70;74.90;;;;;;5091952;28;19923;-72
2022/05/10 03:10:37;;;;;;;;;;;9.80;74.70;;;;;;5092148;28;19915;-71
2022/05/10 03:13:02;;;;;;;;;;;9.80;75.10;;;;;;5092040;28;19908;-72
2022/05/10 03:15:28;;;;;;;;;;;9.80;74.80;;;;;;5091953;28;19916;-71
2022/05/10 03:17:53;;;;;;;;;;;9.90;75.20;;;;;;5091709;28;20002;-71
2022/05/10 03:20:19;;;;;;;;;;;9.90;75.70;;;;;;5091630;28;20001;-71
2022/05/10 03:22:44;;;;;;;;;;;10.00;75.50;;;;;;5091738;28;19916;-72
2022/05/10 03:25:10;;;;;;;;;;;9.90;76.90;;;;;;5092168;28;19912;-71
2022/05/10 03:27:37;;;;;;;;;;;10.10;79.10;;;;;;5091658;28;20328;-71
2022/05/10 03:30:04;;;;;;;;;;;10.10;80.20;;;;;;5090642;28;19915;-71
2022/05/10 03:32:30;;;;;;;;;;;10.10;80.90;;;;;;5091530;28;19912;-72
2022/05/10 03:34:57;;;;;;;;;;;10.20;82.50;;;;;;5090137;28;20071;-71
2022/05/10 03:37:23;;;;;;;;;;;10.30;83.70;;;;;;5091732;28;19965;-71
2022/05/10 03:39:48;;;;;;;;;;;10.30;84.50;;;;;;5091986;28;20223;-70
2022/05/10 03:42:14;;;;;;;;;;;10.30;85.10;;;;;;5091489;28;19916;-71
2022/05/10 03:44:39;;;;;;;;;;;10.30;85.80;;;;;;5091732;28;19912;-70
2022/05/10 03:47:05;;;;;;;;;;;10.30;86.40;;;;;;5091397;28;20150;-70
2022/05/10 03:49:31;;;;;;;;;;;10.30;87.20;;;;;;5090203;28;20331;-70
2022/05/10 03:51:56;;;;;;;;;;;10.30;88.50;;;;;;5091267;28;19956;-70
2022/05/10 03:54:23;;;;;;;;;;;10.30;89.30;;;;;;5091321;28;19912;-70
2022/05/10 03:56:48;;;;;;;;;;;10.30;89.90;;;;;;5091503;28;20356;-70
2022/05/10 03:59:14;;;;;;;;;;;10.20;90.10;;;;;;5091610;28;19922;-70
2022/05/10 04:01:39;;;;;;;;;;;10.20;90.30;;;;;;5091192;28;20387;-70
2022/05/10 04:04:05;;;;;;;;;;;10.20;90.70;;;;;;5091324;28;19912;-70
2022/05/10 04:06:30;;;;;;;;;;;10.20;91.00;;;;;;5091021;28;20013;-70
2022/05/10 04:08:56;;;;;;;;;;;10.30;91.30;;;;;;5095140;28;19927;-70
2022/05/10 04:11:21;;;;;;;;;;;10.30;91.80;;;;;;5095424;28;20011;-70
2022/05/10 04:13:47;;;;;;;;;;;10.30;92.30;;;;;;5095553;28;20294;-70
2022/05/10 04:16:12;;;;;;;;;;;10.40;92.40;;;;;;5095213;28;19965;-70
2022/05/10 04:18:38;;;;;;;;;;;10.40;93.00;;;;;;5095028;28;19924;-70
2022/05/10 04:21:04;;;;;;;;;;;10.50;93.40;;;;;;5095154;28;20202;-72
2022/05/10 04:23:29;;;;;;;;;;;10.50;93.60;;;;;;5095212;28;19965;-69
2022/05/10 04:26:01;;;;;;;;;;;10.50;94.00;;;;;;5095090;28;19958;-70
2022/05/10 04:28:26;;;;;;;;;;;10.60;94.00;;;;;;5095093;28;19938;-70
2022/05/10 04:30:52;;;;;;;;;;;10.70;94.40;;;;;;5093583;28;19912;-70
2022/05/10 04:33:17;;;;;;;;;;;10.80;94.90;;;;;;5094950;28;20344;-70
2022/05/10 04:35:43;;;;;;;;;;;10.90;95.40;;;;;;5093559;28;20007;-71
2022/05/10 04:38:08;;;;;;;;;;;10.90;95.80;;;;;;5094640;28;19920;-69
2022/05/10 04:43:18;;;;;;;;;;;11.10;95.80;;;;;;5094772;28;19938;-71
2022/05/10 04:45:44;;;;;;;;;;;11.20;95.80;;;;;;5094658;28;19924;-70
2022/05/10 04:48:10;;;;;;;;;;;11.30;95.20;;;;;;5093360;28;19916;-70
2022/05/10 04:50:35;;;;;;;;;;;11.30;94.50;;;;;;5093267;28;19946;-70
2022/05/10 04:53:01;;;;;;;;;;;11.40;93.20;;;;;;5094610;28;19912;-70
2022/05/10 04:55:26;;;;;;;;;;;11.40;93.00;;;;;;5095002;28;19912;-69
2022/05/10 04:57:52;;;;;;;;;;;11.50;92.10;;;;;;5094523;28;20006;-70
2022/05/10 05:00:18;;;;;;;;;;;11.50;92.30;;;;;;5094395;28;19912;-70
2022/05/10 05:02:43;;;;;;;;;;;11.60;91.90;;;;;;5094322;28;19977;-71
2022/05/10 05:05:10;;;;;;;;;;;11.60;91.90;;;;;;5094744;28;20343;-70
2022/05/10 05:07:36;;;;;;;;;;;11.60;91.80;;;;;;5094341;28;19992;-70
2022/05/10 05:10:05;;;;;;;;;;;11.70;91.40;;;;;;5094725;28;19919;-69
2022/05/10 05:12:32;;;;;;;;;;;11.80;90.70;;;;;;5094358;28;19920;-69
2022/05/10 05:14:59;;;;;;;;;;;11.90;90.30;;;;;;5094769;28;20276;-70
2022/05/10 05:17:24;;;;;;;;;;;11.90;90.20;;;;;;5094239;28;19916;-70
2022/05/10 05:19:50;;;;;;;;;;;12.00;90.50;;;;;;5093669;28;20272;-69
2022/05/10 05:22:15;;;;;;;;;;;12.10;90.30;;;;;;5092718;28;19926;-69
2022/05/10 05:24:41;;;;;;;;;;;12.30;90.30;;;;;;5094500;28;19913;-69
2022/05/10 05:27:06;;;;;;;;;;;12.30;89.30;;;;;;5093851;28;20320;-68
2022/05/10 05:29:32;;;;;;;;;;;12.30;90.00;;;;;;5094269;28;20419;-69
2022/05/10 05:31:59;;;;;;;;;;;12.40;90.20;;;;;;5093878;28;19998;-70
2022/05/10 05:34:24;;;;;;;;;;;12.50;89.70;;;;;;5094411;28;19916;-70
2022/05/10 05:37:32;;;;;;;;;;;12.70;89.40;;;;;;5092946;28;19912;-70
2022/05/10 05:39:35;;;;;;;;;;;12.70;88.40;;;;;;5093941;28;19970;-70
2022/05/10 05:42:01;;;;;;;;;;;12.80;86.80;;;;;;5093742;28;19944;-71
2022/05/10 05:44:26;;;;;;;;;;;12.90;86.50;;;;;;5093351;28;20359;-69
2022/05/10 05:46:52;;;;;;;;;;;12.90;84.10;;;;;;5093689;28;20469;-71
2022/05/10 05:49:17;;;;;;;;;;;12.90;81.70;;;;;;5093821;28;19912;-70
2022/05/10 05:51:43;;;;;;;;;;;13.10;82.00;;;;;;5093659;28;20010;-70
2022/05/10 05:54:10;;;;;;;;;;;13.30;81.30;;;;;;5093560;28;19947;-71
2022/05/10 05:56:35;;;;;;;;;;;13.30;81.60;;;;;;5093330;28;19916;-70
2022/05/10 05:59:01;;;;;;;;;;;13.30;80.60;;;;;;5093677;28;20458;-70
2022/05/10 06:01:26;;;;;;;;;;;13.40;78.90;;;;;;5093264;28;20005;-70
2022/05/10 06:03:55;;;;;;;;;;;13.50;77.40;;;;;;5093716;28;20029;-70
2022/05/10 06:06:21;;;;;;;;;;;13.50;78.20;;;;;;5092991;28;20368;-69
2022/05/10 06:08:46;;;;;;;;;;;13.70;78.60;;;;;;5093236;28;19920;-70
2022/05/10 06:11:13;;;;;;;;;;;14.00;77.10;;;;;;5093122;28;19935;-69
2022/05/10 06:13:38;;;;;;;;;;;14.10;72.90;;;;;;5093090;28;19918;-70
2022/05/10 06:16:05;;;;;;;;;;;14.10;72.90;;;;;;5091665;28;20348;-71
2022/05/10 06:18:30;;;;;;;;;;;14.20;74.10;;;;;;5093206;28;20366;-70
2022/05/10 06:20:56;;;;;;;;;;;14.30;72.60;;;;;;5092836;28;19916;-70
2022/05/10 06:23:21;;;;;;;;;;;14.40;73.20;;;;;;5093259;28;19985;-71
2022/05/10 06:25:47;;;;;;;;;;;14.50;74.50;;;;;;5092747;28;19935;-71
2022/05/10 06:28:13;;;;;;;;;;;14.50;74.60;;;;;;5092872;28;19912;-71
2022/05/10 06:30:38;;;;;;;;;;;14.60;72.80;;;;;;5091894;28;19916;-72
2022/05/10 06:33:04;;;;;;;;;;;14.70;74.00;;;;;;5093210;28;19920;-71
2022/05/10 06:35:29;;;;;;;;;;;14.80;72.90;;;;;;5091227;28;19908;-72
2022/05/10 06:40:39;;;;;;;;;;;14.70;71.50;;;;;;5092855;28;20276;-71
2022/05/10 06:43:05;;;;;;;;;;;14.70;70.90;;;;;;5092645;28;19912;-71
2022/05/10 06:45:30;;;;;;;;;;;14.60;70.00;;;;;;5092404;28;19977;-72
2022/05/10 06:47:56;;;;;;;;;;;14.80;71.10;;;;;;5092640;28;19908;-71
2022/05/10 06:50:22;;;;;;;;;;;14.90;70.80;;;;;;5092324;28;19912;-72
2022/05/10 06:52:52;;;;;;;;;;;15.10;70.40;;;;;;5092422;28;20006;-71
2022/05/10 06:55:18;;;;;;;;;;;15.30;70.70;;;;;;5092547;28;20272;-71
2022/05/10 06:57:43;;;;;;;;;;;15.60;68.10;;;;;;5092404;28;19914;-71
2022/05/10 07:00:10;;;;;;;;;;;15.80;69.30;;;;;;5092719;28;19920;-71
2022/05/10 07:02:36;;;;;;;;;;;15.90;67.40;;;;;;5092257;28;19938;-71
2022/05/10 07:05:01;;;;;;;;;;;15.80;66.30;;;;;;5092442;28;19915;-71
2022/05/10 07:07:27;;;;;;;;;;;15.80;66.70;;;;;;5090794;28;19916;-71
2022/05/10 07:09:53;;;;;;;;;;;15.80;65.00;;;;;;5090975;28;20368;-71
2022/05/10 07:12:19;;;;;;;;;;;15.80;63.60;;;;;;5090476;28;19916;-70
2022/05/10 07:14:45;;;;;;;;;;;16.10;63.80;;;;;;5092556;28;19965;-71
2022/05/10 07:17:12;;;;;;;;;;;16.20;63.20;;;;;;5092220;28;19912;-70
2022/05/10 07:19:37;;;;;;;;;;;16.30;62.80;;;;;;5092117;28;20322;-70
2022/05/10 07:22:03;;;;;;;;;;;16.60;62.10;;;;;;5092512;28;19918;-70
2022/05/10 07:24:28;;;;;;;;;;;16.50;61.30;;;;;;5092266;28;19912;-69
2022/05/10 07:26:54;;;;;;;;;;;16.60;62.00;;;;;;5091627;28;19920;-69
2022/05/10 07:29:19;;;;;;;;;;;16.30;62.10;;;;;;5092113;28;20364;-70
2022/05/10 07:31:45;;;;;;;;;;;16.40;62.10;;;;;;5091668;28;19912;-70
2022/05/10 07:34:11;;;;;;;;;;;16.50;62.00;;;;;;5092044;28;19923;-71
2022/05/10 07:36:36;;;;;;;;;;;16.60;62.10;;;;;;5091761;28;19970;-70
2022/05/10 07:39:12;;;;;;;;;;;16.70;61.80;;;;;;5091823;28;20218;-71
2022/05/10 07:41:38;;;;;;;;;;;16.90;61.90;;;;;;5091809;28;19950;-71
2022/05/10 07:44:07;;;;;;;;;;;16.90;60.70;;;;;;5091924;28;19916;-71
2022/05/10 07:46:33;;;;;;;;;;;16.90;60.10;;;;;;5090300;28;19920;-71
2022/05/10 07:48:59;;;;;;;;;;;17.00;60.60;;;;;;5091955;28;19912;-71
2022/05/10 07:51:24;;;;;;;;;;;17.10;59.70;;;;;;5090031;28;20344;-71
2022/05/10 07:53:50;;;;;;;;;;;17.20;59.10;;;;;;5091646;28;19918;-71
2022/05/10 07:56:16;;;;;;;;;;;17.10;58.20;;;;;;5089934;28;19912;-70
2022/05/10 07:58:41;;;;;;;;;;;16.80;59.10;;;;;;5091813;28;19944;-71
2022/05/10 08:01:07;;;;;;;;;;;17.20;58.90;;;;;;5091406;28;19965;-72
2022/05/10 08:03:33;;;;;;;;;;;17.30;57.60;;;;;;5089920;28;19918;-71
2022/05/10 08:05:59;;;;;;;;;;;17.20;57.60;;;;;;5091049;28;19916;-70
2022/05/10 08:08:25;;;;;;;;;;;17.10;56.60;;;;;;5091488;28;19916;-70
2022/05/10 08:10:53;;;;;;;;;;;17.10;57.70;;;;;;5091372;28;19961;-70
2022/05/10 08:13:20;;;;;;;;;;;17.30;58.10;;;;;;5091484;28;19940;-72
2022/05/10 08:15:46;;;;;;;;;;;17.50;57.50;;;;;;5091131;28;19912;-72
2022/05/10 08:18:12;;;;;;;;;;;17.60;57.50;;;;;;5091247;28;19916;-73
2022/05/10 08:20:38;;;;;;;;;;;17.80;57.00;;;;;;5090953;28;19931;-72
2022/05/10 08:23:06;;;;;;;;;;;17.80;56.90;;;;;;5090901;28;20363;-72
2022/05/10 08:25:32;;;;;;;;;;;17.80;56.20;;;;;;5091057;28;19920;-72
2022/05/10 08:27:57;;;;;;;;;;;17.90;56.80;;;;;;5090849;28;20367;-72
2022/05/10 08:30:23;;;;;;;;;;;18.30;55.90;;;;;;5089695;28;19916;-71
2022/05/10 08:32:48;;;;;;;;;;;18.60;55.50;;;;;;5090898;28;19908;-71
2022/05/10 08:35:14;;;;;;;;;;;18.90;55.30;;;;;;5090907;28;19924;-72
2022/05/10 08:37:39;;;;;;;;;;;19.10;55.10;;;;;;5089732;28;19908;-70
2022/05/10 08:40:06;;;;;;;;;;;19.20;55.40;;;;;;5091550;28;19912;-71
2022/05/10 08:42:34;;;;;;;;;;;19.30;55.30;;;;;;5091090;28;19912;-71
2022/05/10 08:45:02;;;;;;;;;;;19.40;55.20;;;;;;5091414;28;19919;-71
2022/05/10 08:47:28;;;;;;;;;;;19.40;55.50;;;;;;5090758;28;19916;-70
2022/05/10 08:49:57;;;;;;;;;;;19.70;55.00;;;;;;5091304;28;19996;-70
2022/05/10 08:52:25;;;;;;;;;;;19.60;55.10;;;;;;5090746;28;19942;-69
2022/05/10 08:54:50;;;;;;;;;;;19.60;55.30;;;;;;5094416;28;19916;-70
2022/05/10 08:57:35;;;;;;;;;;;19.60;55.40;;;;;;5094409;28;19923;-69
2022/05/10 09:00:03;;;;;;;;;;;19.60;55.40;;;;;;5094981;28;19919;-69
2022/05/10 09:02:47;;;;;;;;;;;19.70;55.40;;;;;;5094608;28;19912;-70
2022/05/10 09:05:28;;;;;;;;;;;19.90;54.70;;;;;;5094912;28;19995;-70
2022/05/10 09:08:11;;;;;;;;;;;20.00;54.80;;;;;;5094598;28;20303;-68
2022/05/10 09:10:39;;;;;;;;;;;19.80;55.00;;;;;;5094652;28;20210;-68
2022/05/10 09:13:06;;;;;;;;;;;19.90;55.40;;;;;;5094199;28;20283;-69
2022/05/10 09:15:34;;;;;;;;;;;19.90;55.80;;;;;;5092926;28;20357;-70
2022/05/10 09:18:05;;;;;;;;;;;19.80;55.30;;;;;;5094050;28;19961;-71
2022/05/10 09:20:31;;;;;;;;;;;19.80;55.60;;;;;;5094316;28;19924;-71
2022/05/10 09:22:56;;;;;;;;;;;19.60;55.90;;;;;;5094118;28;20002;-71
2022/05/10 09:25:31;;;;;;;;;;;19.60;55.30;;;;;;5092736;28;19919;-71
2022/05/10 09:27:58;;;;;;;;;;;19.50;55.80;;;;;;5093975;28;19912;-70
2022/05/10 09:30:28;;;;;;;;;;;19.40;56.20;;;;;;5094069;28;19919;-69
2022/05/10 09:35:57;;;;;;;;;;;19.50;55.70;;;;;;5093756;28;20018;-68
2022/05/10 09:38:22;;;;;;;;;;;19.70;56.50;;;;;;5093882;28;19912;-70
2022/05/10 09:40:48;;;;;;;;;;;20.00;55.50;;;;;;5093753;28;19966;-70
2022/05/10 09:43:14;;;;;;;;;;;20.00;55.30;;;;;;5093570;28;19986;-70
2022/05/10 09:45:39;;;;;;;;;;;20.00;54.90;;;;;;5093611;28;19973;-71
2022/05/10 09:48:08;;;;;;;;;;;19.90;55.40;;;;;;5093412;28;19963;-70
2022/05/10 09:50:36;;;;;;;;;;;19.70;55.40;;;;;;5093637;28;19912;-71
2022/05/10 09:53:12;;;;;;;;;;;19.70;55.80;;;;;;5093470;28;19908;-70
2022/05/10 09:55:39;;;;;;;;;;;19.80;55.70;;;;;;5091950;28;19947;-70
2022/05/10 09:58:37;;;;;;;;;;;19.90;55.40;;;;;;5092226;28;19915;-68
2022/05/10 10:01:04;;;;;;;;;;;20.10;54.90;;;;;;5058954;28;20229;-68
2022/05/10 10:03:32;;;;;;;;;;;20.10;55.10;;;;;;5093031;28;19912;-68
2022/05/10 10:06:12;;;;;;;;;;;20.00;55.00;;;;;;5092203;28;19939;-68
2022/05/10 10:08:40;;;;;;;;;;;19.90;55.20;;;;;;5093185;28;19912;-68
2022/05/10 10:11:12;;;;;;;;;;;20.00;55.00;;;;;;5093576;28;19916;-69
2022/05/10 10:13:39;;;;;;;;;;;20.30;54.80;;;;;;5092903;28;19916;-68
2022/05/10 10:16:25;;;;;;;;;;;20.70;54.50;;;;;;5092944;28;20473;-68
2022/05/10 10:18:53;;;;;;;;;;;21.00;54.20;;;;;;5090401;28;19999;-68
2022/05/10 10:21:25;;;;;;;;;;;21.30;53.80;;;;;;5091574;28;19913;-68
2022/05/10 10:23:53;;;;;;;;;;;21.50;53.10;;;;;;5093184;28;19916;-68
2022/05/10 10:26:25;;;;;;;;;;;21.80;53.00;;;;;;5092799;28;19916;-69
2022/05/10 10:28:54;;;;;;;;;;;21.90;52.70;;;;;;5092974;28;19916;-68
2022/05/10 10:31:26;;;;;;;;;;;22.10;52.10;;;;;;5092888;28;19912;-69
2022/05/10 10:34:01;;;;;;;;;;;22.30;51.70;;;;;;5092268;28;20299;-68
2022/05/10 10:36:36;;;;;;;;;;;22.20;52.80;;;;;;5092953;28;19958;-69
2022/05/10 10:39:16;;;;;;;;;;;22.10;52.00;;;;;;5092805;28;19917;-68
2022/05/10 10:41:50;;;;;;;;;;;22.30;51.80;;;;;;5092764;28;19919;-69
2022/05/10 10:44:16;;;;;;;;;;;22.50;51.70;;;;;;5092684;28;19916;-69
2022/05/10 10:46:57;;;;;;;;;;;22.60;51.20;;;;;;5092472;28;20399;-69
2022/05/10 10:49:25;;;;;;;;;;;22.50;51.20;;;;;;5092851;28;19920;-68
2022/05/10 10:51:51;;;;;;;;;;;22.50;51.60;;;;;;5092651;28;20314;-69
2022/05/10 10:54:17;;;;;;;;;;;22.80;51.40;;;;;;5092591;28;19916;-70
2022/05/10 10:57:06;;;;;;;;;;;22.80;50.80;;;;;;5092393;28;20021;-70
2022/05/10 10:59:52;;;;;;;;;;;23.00;50.70;;;;;;5092709;28;20018;-70
2022/05/10 11:02:20;;;;;;;;;;;22.90;50.80;;;;;;5092340;28;19915;-70
2022/05/10 11:04:46;;;;;;;;;;;22.90;51.00;;;;;;5092629;28;20288;-71
2022/05/10 11:07:30;;;;;;;;;;;23.10;50.80;;;;;;5092389;28;19923;-72
2022/05/10 11:09:58;;;;;;;;;;;23.50;50.60;;;;;;5092682;28;19974;-70
2022/05/10 11:12:45;;;;;;;;;;;23.50;50.40;;;;;;5092072;28;20356;-71
2022/05/10 11:15:16;;;;;;;;;;;23.60;50.20;;;;;;5092358;28;19917;-71
2022/05/10 11:18:00;;;;;;;;;;;23.30;49.70;;;;;;5091783;28;20302;-70
2022/05/10 11:20:47;;;;;;;;;;;23.10;50.10;;;;;;5091797;28;20022;-71
2022/05/10 11:23:20;;;;;;;;;;;23.00;50.20;;;;;;5090701;28;19955;-70
2022/05/10 11:26:00;;;;;;;;;;;23.00;50.50;;;;;;5091533;28;20571;-71
2022/05/10 11:28:25;;;;;;;;;;;22.80;50.70;;;;;;5091844;28;20324;-71
2022/05/10 11:31:09;;;;;;;;;;;22.80;51.00;;;;;;5091742;28;19912;-72
2022/05/10 11:33:55;;;;;;;;;;;22.40;50.90;;;;;;5090332;28;20008;-72
2022/05/10 11:36:31;;;;;;;;;;;22.10;51.00;;;;;;5090313;28;19994;-71
2022/05/10 11:39:06;;;;;;;;;;;22.10;51.00;;;;;;5091991;28;20379;-72
2022/05/10 11:41:42;;;;;;;;;;;22.20;51.60;;;;;;5091430;28;20433;-72
2022/05/10 11:44:08;;;;;;;;;;;22.30;51.40;;;;;;5091986;28;19912;-73
2022/05/10 11:46:52;;;;;;;;;;;22.20;50.80;;;;;;5091533;28;20437;-72
2022/05/10 11:49:27;;;;;;;;;;;21.80;51.30;;;;;;5091489;28;19919;-72
2022/05/10 11:52:01;;;;;;;;;;;21.50;51.90;;;;;;5091404;28;20383;-72
2022/05/10 11:54:40;;;;;;;;;;;21.40;52.20;;;;;;5091798;28;19912;-72
2022/05/10 11:57:09;;;;;;;;;;;21.50;51.80;;;;;;5091293;28;20338;-72
2022/05/10 11:59:37;;;;;;;;;;;21.60;52.10;;;;;;5090045;28;19923;-72
2022/05/10 12:02:03;;;;;;;;;;;21.80;51.60;;;;;;5089952;28;19962;-71
2022/05/10 12:04:28;;;;;;;;;;;22.10;50.80;;;;;;5091597;28;19913;-72
2022/05/10 12:06:54;;;;;;;;;;;22.00;50.80;;;;;;5091142;28;19961;-72
2022/05/10 12:09:39;;;;;;;;;;;21.70;50.90;;;;;;5091758;28;20281;-72
2022/05/10 12:12:04;;;;;;;;;;;21.60;50.80;;;;;;5091590;28;19916;-71
2022/05/10 12:24:04;;;;;;;;;;;21.30;51.20;;;;;;5091562;28;20022;-72
2022/05/10 12:26:32;;;;;;;;;;;21.20;51.60;;;;;;5028423;28;19917;-72
2022/05/10 12:28:57;;;;;;;;;;;21.10;51.80;;;;;;5081269;28;20363;-71
2022/05/10 12:31:32;;;;;;;;;;;21.00;52.00;;;;;;5093836;28;20006;-72
2022/05/10 12:34:02;;;;;;;;;;;20.80;52.50;;;;;;5095292;28;19962;-72
2022/05/10 12:36:31;;;;;;;;;;;20.80;52.70;;;;;;5094992;28;19916;-72
2022/05/10 12:39:15;;;;;;;;;;;20.70;52.60;;;;;;5095279;28;19962;-71
2022/05/10 12:41:46;;;;;;;;;;;20.70;52.80;;;;;;5094935;28;20371;-71
2022/05/10 12:44:31;;;;;;;;;;;20.40;52.60;;;;;;5095249;28;19912;-71
2022/05/10 12:47:15;;;;;;;;;;;20.20;52.30;;;;;;5094825;28;20309;-72
2022/05/10 12:49:53;;;;;;;;;;;20.00;52.90;;;;;;5095072;28;19912;-72
2022/05/10 12:52:24;;;;;;;;;;;19.80;53.30;;;;;;5094668;28;19916;-72
2022/05/10 12:54:53;;;;;;;;;;;19.70;53.80;;;;;;5095164;28;19916;-72
2022/05/10 12:57:19;;;;;;;;;;;19.60;53.30;;;;;;5094586;28;20341;-72
2022/05/10 12:59:52;;;;;;;;;;;19.40;53.60;;;;;;5093582;28;19966;-72
2022/05/10 13:02:17;;;;;;;;;;;19.40;54.40;;;;;;5094509;28;20008;-71
2022/05/10 13:04:50;;;;;;;;;;;19.30;54.00;;;;;;5093346;28;19951;-72
2022/05/10 13:07:31;;;;;;;;;;;19.20;53.80;;;;;;5093497;28;19927;-72
2022/05/10 13:10:00;;;;;;;;;;;19.20;53.60;;;;;;5093457;28;19912;-72
2022/05/10 13:12:27;;;;;;;;;;;19.20;54.20;;;;;;5092960;28;19916;-72
2022/05/10 13:14:59;;;;;;;;;;;19.10;54.10;;;;;;5094724;28;19935;-72
2022/05/10 13:17:30;;;;;;;;;;;19.00;54.70;;;;;;5094478;28;19922;-72
2022/05/10 13:19:57;;;;;;;;;;;18.90;54.00;;;;;;5094496;28;19976;-72
2022/05/10 13:22:24;;;;;;;;;;;18.50;54.40;;;;;;5094200;28;19953;-72
2022/05/10 13:24:50;;;;;;;;;;;18.50;54.40;;;;;;5094558;28;19916;-72
2022/05/10 13:27:26;;;;;;;;;;;18.40;54.80;;;;;;5092636;28;19923;-72
2022/05/10 13:29:52;;;;;;;;;;;18.30;55.10;;;;;;5094183;28;19955;-73
2022/05/10 13:32:27;;;;;;;;;;;18.20;55.50;;;;;;5093803;28;20377;-72
2022/05/10 13:34:54;;;;;;;;;;;18.20;55.10;;;;;;5094274;28;19916;-73
2022/05/10 13:37:29;;;;;;;;;;;18.20;55.30;;;;;;5093881;28;20325;-73
2022/05/10 13:39:56;;;;;;;;;;;18.20;56.00;;;;;;5093413;28;19935;-72
2022/05/10 13:42:22;;;;;;;;;;;18.20;55.60;;;;;;5093846;28;19912;-72
2022/05/10 13:44:47;;;;;;;;;;;18.20;55.20;;;;;;5092229;28;19923;-72
2022/05/10 13:47:21;;;;;;;;;;;18.20;55.10;;;;;;5093472;28;19923;-72
2022/05/10 13:49:47;;;;;;;;;;;18.20;55.40;;;;;;5093659;28;19916;-72
2022/05/10 13:52:25;;;;;;;;;;;18.10;55.10;;;;;;5093113;28;20307;-72
2022/05/10 13:54:56;;;;;;;;;;;18.00;55.40;;;;;;5093665;28;19970;-72
2022/05/10 13:57:25;;;;;;;;;;;18.00;55.00;;;;;;5093483;28;20368;-72
2022/05/10 13:59:51;;;;;;;;;;;18.00;55.40;;;;;;5093870;28;19943;-72
2022/05/10 14:02:16;;;;;;;;;;;17.90;55.70;;;;;;5094034;28;19958;-72
2022/05/10 14:04:46;;;;;;;;;;;17.90;56.20;;;;;;5093737;28;20340;-73
2022/05/10 14:07:26;;;;;;;;;;;17.90;55.50;;;;;;5093538;28;19918;-73
2022/05/10 14:09:53;;;;;;;;;;;17.90;55.60;;;;;;5093842;28;20286;-72
2022/05/10 14:12:23;;;;;;;;;;;17.90;56.10;;;;;;5093234;28;19908;-72
2022/05/10 14:14:50;;;;;;;;;;;17.80;55.00;;;;;;5092144;28;20261;-72
2022/05/10 14:17:16;;;;;;;;;;;17.80;55.40;;;;;;5093153;28;19931;-73
2022/05/10 14:19:45;;;;;;;;;;;17.80;55.60;;;;;;5093247;28;19924;-73
2022/05/10 14:22:18;;;;;;;;;;;17.70;55.30;;;;;;5093395;28;20391;-72
2022/05/10 14:24:45;;;;;;;;;;;17.70;55.30;;;;;;5093524;28;20145;-72
2022/05/10 14:27:18;;;;;;;;;;;17.60;55.50;;;;;;5092947;28;19919;-72
2022/05/10 14:29:46;;;;;;;;;;;17.60;55.50;;;;;;5093377;28;19916;-71
2022/05/10 14:32:31;;;;;;;;;;;17.60;55.60;;;;;;5091567;28;19912;-71
2022/05/10 14:35:01;;;;;;;;;;;17.50;55.90;;;;;;5093279;28;19931;-71
2022/05/10 14:37:28;;;;;;;;;;;17.40;55.50;;;;;;5092810;28;19909;-71
2022/05/10 14:39:55;;;;;;;;;;;17.30;56.10;;;;;;5093203;28;19916;-71
2022/05/10 14:42:29;;;;;;;;;;;17.30;55.60;;;;;;5092722;28;19908;-71
2022/05/10 14:45:10;;;;;;;;;;;17.20;55.20;;;;;;5093264;28;19922;-71
2022/05/10 14:47:36;;;;;;;;;;;17.20;55.20;;;;;;5092462;28;19947;-71
2022/05/10 14:50:01;;;;;;;;;;;17.20;54.90;;;;;;5091367;28;20028;-71
2022/05/10 14:52:31;;;;;;;;;;;17.00;55.10;;;;;;5090538;28;20329;-72